Domov               UVHVVR             MKGP            O straneh              
ZDRAVSTVENO VARSTVO RASTLIN
  MREŽA AGROMET. POSTAJ
 ► PROGNOSTIČNA OBVESTILA
AGROMETEOROLOŠKI PODATKI -
ARSO
OBVLADOVANJE TVEGANJ ZARADI
NEUGODNIH VREMENSKIH RAZMER
  ► NARAVNE NESREČE
  ► SUŠA/MOČA
  ► NAMAKANJE
  ► ŽLED (gozdarstvo)
KARTOGRAFSKI PRIKAZI
SPLETNE POVEZAVE
PROJEKTI IN PUBLIKACIJE

AGROMETEOROLOŠKA MREŽA: VREMENSKE POSTAJE IN FENOLOŠKA OPAZOVANJA

Pregled podatkov za lokacijo Gabernik-Rogaška, meteorološka postaja 37800

Pregled senzorjev na lokaciji

ID Ime Zadnja
vrednost
Datum in čas
zadnje
spremembe
(Lokalni čas)
Tip
senzorja
1828 Omočenost lista (U) 10 U 15.12.2019 05:00 A730WET
4946 Padavine (mm) 0 mm 15.12.2019 05:00 Generic 0.2 mm
1827 Relativna vlaga 2 m (% RH) 96.75 % RH 15.12.2019 05:00 50YA
1826 Temperatura 2 m (°C) -0.78 °C 15.12.2019 05:00 50YA

Pregled podatkov zadnjih 24 ur

Zap.
št.
Datum in čas
(Centralno
evropski čas)
Gabernik-Rogaška
Omočenost
lista
Padavine Relativna
vlaga
2
m
Temperatura
2
m
1 15.12.2019 05:30
2 15.12.2019 05:00 10 0 96.8 -0.8
3 15.12.2019 04:30 10 0 98.2 -1
4 15.12.2019 04:00 10 0 96.5 -1
5 15.12.2019 03:30 10 0 94.8 -0.3
6 15.12.2019 03:00 10 0 94.2 0
7 15.12.2019 02:30 10 0 95 -0.3
8 15.12.2019 02:00 10 0 94.9 -0.2
9 15.12.2019 01:30 10 0 94.4 0.3
10 15.12.2019 01:00 10 0 94.7 0
11 15.12.2019 00:30 10 0 90.5 1
12 15.12.2019 00:00 10 0 85.9 1.8
13 14.12.2019 23:30 10 0 87.9 1.4
14 14.12.2019 23:00 9 0 93.6 0.4
15 14.12.2019 22:30 5 0 94.1 0.5
16 14.12.2019 22:00 3 0 91.6 1.2
17 14.12.2019 21:30 3 0 89.3 1.7
18 14.12.2019 21:00 3 0 85.6 2.7
19 14.12.2019 20:30 2 0 93.1 2.2
20 14.12.2019 20:00 1 0 92.7 2.5
21 14.12.2019 19:30 0 0 91.3 2.7
22 14.12.2019 19:00 0 0 85.5 3.5
23 14.12.2019 18:30 0 0.2 81.2 4.2
24 14.12.2019 18:00 0 0 84.8 3.7
25 14.12.2019 17:30 0 0 85.2 3.7
26 14.12.2019 17:00 0 0.2 82.6 4.4
27 14.12.2019 16:30 0 0 81.2 4.9
28 14.12.2019 16:00 0 0.4 76.9 6.2
29 14.12.2019 15:30 0 0.4 75.3 7.3
30 14.12.2019 15:00 0 0.4 73.3 7.3
31 14.12.2019 14:30 0 0.4 74 6.8
32 14.12.2019 14:00 0 0.8 73.5 7.2
33 14.12.2019 13:30 0 0.8 76.1 6.2
34 14.12.2019 13:00 0 1.2 77.8 5.7
35 14.12.2019 12:30 0 1.2 80.4 5.4
36 14.12.2019 12:00 1 1.8 81.5 4.2
37 14.12.2019 11:30 1 0.6 88.6 2.5
38 14.12.2019 11:00 1 0.8 91.1 2.2
39 14.12.2019 10:30 1 0.4 94.7 1.8
40 14.12.2019 10:00 1 0.2 99.4 0.7
41 14.12.2019 09:30 0 0 99.1 0.1
42 14.12.2019 09:00 0 0 99.4 0.5
43 14.12.2019 08:30 0 0 99.9 0.1
44 14.12.2019 08:00 1 0 99.9 -0.6
45 14.12.2019 07:30 2 0 99.6 -0.4
46 14.12.2019 07:00 5 0 99.5 0.6
47 14.12.2019 06:30 7 0 99.9 0.5
48 14.12.2019 06:00 8 0 99.8 -0.1
© 2011 Ministrstvo za kmetijstvo, gozdarstvo in prehrano. Vse pravice pridržane.